Laurel, Delaware
Current Conditions -  °F | °C
As of 12:54 PM on Monday 24 Nov 2014 (Local Time) from KGED Reporting Station
Clear Clear  
Wind Chill: 73°   Ceiling: Unl
Heat Index: 73°   Visibility: 10mi
Dew Point: 58°   Wind: 21mph
Humidity: 59%   Direction: 210°SSW
Pressure: 29.69"   Gusts: 31mph
Location:  38.56°N, 75.57°W
Report Text: KGED 241754Z AUTO 21018G27KT 10SM CLR 23/14 A2969 RMK AO2 PK WND 22031/1725 SLP053 T02280144 10228 20194 58018
Loading
Personal Weather Stations






























Interactive Weather Map New forecast layout! Learn more

10-Day Weather Forecast

Advertisements
Track Severe Weather on mobile